sensor_id;sensor_type;location;lat;lon;timestamp;pressure;altitude;pressure_sealevel;temperature;humidity
43298;BME280;28892;55.640;37.532;2023-04-26T00:00:26;97503.13;;;14.43;60.76
43298;BME280;28892;55.640;37.532;2023-04-26T00:02:54;97492.94;;;14.39;60.75
43298;BME280;28892;55.640;37.532;2023-04-26T00:05:20;97489.41;;;14.34;60.73
43298;BME280;28892;55.640;37.532;2023-04-26T00:07:46;97480.63;;;14.33;60.49
43298;BME280;28892;55.640;37.532;2023-04-26T00:10:15;97477.66;;;14.30;61.04
43298;BME280;28892;55.640;37.532;2023-04-26T00:12:41;97484.66;;;14.36;60.52
43298;BME280;28892;55.640;37.532;2023-04-26T00:15:08;97471.22;;;14.25;60.59
43298;BME280;28892;55.640;37.532;2023-04-26T00:17:34;97470.72;;;14.29;60.59
43298;BME280;28892;55.640;37.532;2023-04-26T00:20:01;97480.44;;;14.18;60.68
43298;BME280;28892;55.640;37.532;2023-04-26T00:22:30;97467.38;;;14.16;61.22
43298;BME280;28892;55.640;37.532;2023-04-26T00:24:56;97474.53;;;14.16;61.76
43298;BME280;28892;55.640;37.532;2023-04-26T00:27:22;97474.63;;;14.21;61.57
43298;BME280;28892;55.640;37.532;2023-04-26T00:29:47;97461.59;;;14.02;61.42
43298;BME280;28892;55.640;37.532;2023-04-26T00:32:13;97462.56;;;13.96;62.69
43298;BME280;28892;55.640;37.532;2023-04-26T00:34:39;97473.19;;;14.13;62.09
43298;BME280;28892;55.640;37.532;2023-04-26T00:37:05;97451.31;;;13.89;63.17
43298;BME280;28892;55.640;37.532;2023-04-26T00:39:31;97455.94;;;13.99;62.52
43298;BME280;28892;55.640;37.532;2023-04-26T00:41:57;97449.50;;;13.94;62.48
43298;BME280;28892;55.640;37.532;2023-04-26T00:44:23;97458.38;;;14.00;62.33
43298;BME280;28892;55.640;37.532;2023-04-26T00:46:51;97453.22;;;13.93;62.75
43298;BME280;28892;55.640;37.532;2023-04-26T00:49:18;97451.00;;;13.85;62.51
43298;BME280;28892;55.640;37.532;2023-04-26T00:51:48;97436.06;;;13.84;62.51
43298;BME280;28892;55.640;37.532;2023-04-26T00:54:19;97430.97;;;13.82;62.75
43298;BME280;28892;55.640;37.532;2023-04-26T00:56:45;97436.28;;;13.60;62.72
43298;BME280;28892;55.640;37.532;2023-04-26T00:59:12;97434.00;;;13.69;62.59
43298;BME280;28892;55.640;37.532;2023-04-26T01:01:37;97424.50;;;13.56;63.35
43298;BME280;28892;55.640;37.532;2023-04-26T01:04:05;97419.41;;;13.54;62.94
43298;BME280;28892;55.640;37.532;2023-04-26T01:06:34;97425.59;;;13.77;62.97
43298;BME280;28892;55.640;37.532;2023-04-26T01:09:02;97436.28;;;13.60;63.36
43298;BME280;28892;55.640;37.532;2023-04-26T01:11:37;97427.72;;;13.58;63.70
43298;BME280;28892;55.640;37.532;2023-04-26T01:14:04;97420.41;;;13.48;63.80
43298;BME280;28892;55.640;37.532;2023-04-26T01:16:31;97422.00;;;13.49;63.52
43298;BME280;28892;55.640;37.532;2023-04-26T01:18:57;97421.94;;;13.44;64.16
43298;BME280;28892;55.640;37.532;2023-04-26T01:21:24;97416.19;;;13.35;64.03
43298;BME280;28892;55.640;37.532;2023-04-26T01:23:54;97407.13;;;13.36;64.19
43298;BME280;28892;55.640;37.532;2023-04-26T01:26:20;97412.28;;;13.43;65.11
43298;BME280;28892;55.640;37.532;2023-04-26T01:28:46;97398.84;;;13.50;64.19
43298;BME280;28892;55.640;37.532;2023-04-26T01:31:14;97399.88;;;13.49;64.70
43298;BME280;28892;55.640;37.532;2023-04-26T01:33:40;97391.81;;;13.44;64.38
43298;BME280;28892;55.640;37.532;2023-04-26T01:36:08;97397.13;;;13.61;64.49
43298;BME280;28892;55.640;37.532;2023-04-26T01:38:35;97398.03;;;13.49;64.49
43298;BME280;28892;55.640;37.532;2023-04-26T01:41:01;97389.50;;;13.47;65.05
43298;BME280;28892;55.640;37.532;2023-04-26T01:43:27;97388.03;;;13.39;65.10
43298;BME280;28892;55.640;37.532;2023-04-26T01:45:55;97384.22;;;13.52;64.07
43298;BME280;28892;55.640;37.532;2023-04-26T01:48:29;97372.28;;;13.38;64.96
43298;BME280;28892;55.640;37.532;2023-04-26T01:50:55;97379.47;;;13.37;65.17
43298;BME280;28892;55.640;37.532;2023-04-26T01:53:21;97371.63;;;13.48;64.94
43298;BME280;28892;55.640;37.532;2023-04-26T01:55:47;97372.59;;;13.41;65.21
43298;BME280;28892;55.640;37.532;2023-04-26T01:58:13;97368.19;;;13.30;65.11
43298;BME280;28892;55.640;37.532;2023-04-26T02:00:39;97359.50;;;13.18;65.68
43298;BME280;28892;55.640;37.532;2023-04-26T02:03:05;97362.38;;;13.33;64.52
43298;BME280;28892;55.640;37.532;2023-04-26T02:05:30;97371.22;;;13.39;64.98
43298;BME280;28892;55.640;37.532;2023-04-26T02:07:56;97357.59;;;13.35;64.83
43298;BME280;28892;55.640;37.532;2023-04-26T02:10:22;97349.25;;;13.26;65.14
43298;BME280;28892;55.640;37.532;2023-04-26T02:12:53;97343.09;;;13.26;65.49
43298;BME280;28892;55.640;37.532;2023-04-26T02:15:19;97347.69;;;13.31;64.45
43298;BME280;28892;55.640;37.532;2023-04-26T02:17:46;97349.19;;;13.44;64.24
43298;BME280;28892;55.640;37.532;2023-04-26T02:20:13;97340.25;;;13.33;64.86
43298;BME280;28892;55.640;37.532;2023-04-26T02:22:39;97347.31;;;13.22;65.69
43298;BME280;28892;55.640;37.532;2023-04-26T02:25:06;97344.00;;;13.14;66.15
43298;BME280;28892;55.640;37.532;2023-04-26T02:27:32;97338.09;;;13.30;65.49
43298;BME280;28892;55.640;37.532;2023-04-26T02:30:00;97341.50;;;13.25;65.30
43298;BME280;28892;55.640;37.532;2023-04-26T02:32:26;97332.16;;;13.22;65.31
43298;BME280;28892;55.640;37.532;2023-04-26T02:34:52;97334.53;;;13.02;66.20
43298;BME280;28892;55.640;37.532;2023-04-26T02:37:19;97328.00;;;12.92;66.49
43298;BME280;28892;55.640;37.532;2023-04-26T02:39:50;97331.38;;;13.05;66.40
43298;BME280;28892;55.640;37.532;2023-04-26T02:42:16;97332.56;;;13.14;65.93
43298;BME280;28892;55.640;37.532;2023-04-26T02:44:42;97328.56;;;13.34;65.16
43298;BME280;28892;55.640;37.532;2023-04-26T02:47:08;97328.91;;;13.20;65.45
43298;BME280;28892;55.640;37.532;2023-04-26T02:49:34;97327.06;;;13.21;65.10
43298;BME280;28892;55.640;37.532;2023-04-26T02:52:01;97335.38;;;13.24;65.46
43298;BME280;28892;55.640;37.532;2023-04-26T02:54:28;97320.50;;;13.28;65.07
43298;BME280;28892;55.640;37.532;2023-04-26T02:56:55;97325.78;;;13.23;65.62
43298;BME280;28892;55.640;37.532;2023-04-26T02:59:22;97319.59;;;13.18;65.93
43298;BME280;28892;55.640;37.532;2023-04-26T03:01:48;97330.38;;;13.28;65.84
43298;BME280;28892;55.640;37.532;2023-04-26T03:04:14;97314.94;;;13.30;65.92
43298;BME280;28892;55.640;37.532;2023-04-26T03:06:43;97316.59;;;13.14;66.47
43298;BME280;28892;55.640;37.532;2023-04-26T03:09:09;97311.50;;;13.12;66.17
43298;BME280;28892;55.640;37.532;2023-04-26T03:11:35;97314.81;;;13.20;65.98
43298;BME280;28892;55.640;37.532;2023-04-26T03:14:01;97312.06;;;13.14;66.02
43298;BME280;28892;55.640;37.532;2023-04-26T03:16:29;97302.38;;;13.25;65.42
43298;BME280;28892;55.640;37.532;2023-04-26T03:18:54;97308.75;;;13.24;65.88
43298;BME280;28892;55.640;37.532;2023-04-26T03:21:21;97300.22;;;13.05;66.59
43298;BME280;28892;55.640;37.532;2023-04-26T03:23:47;97296.53;;;13.06;66.79
43298;BME280;28892;55.640;37.532;2023-04-26T03:26:13;97301.38;;;13.09;66.97
43298;BME280;28892;55.640;37.532;2023-04-26T03:28:40;97298.38;;;13.06;66.27
43298;BME280;28892;55.640;37.532;2023-04-26T03:31:06;97300.00;;;13.07;66.94
43298;BME280;28892;55.640;37.532;2023-04-26T03:33:33;97290.16;;;13.07;66.42
43298;BME280;28892;55.640;37.532;2023-04-26T03:35:59;97297.47;;;13.17;66.62
43298;BME280;28892;55.640;37.532;2023-04-26T03:38:25;97302.09;;;13.05;67.04
43298;BME280;28892;55.640;37.532;2023-04-26T03:40:51;97296.13;;;12.97;67.65
43298;BME280;28892;55.640;37.532;2023-04-26T03:43:17;97293.00;;;13.01;67.73
43298;BME280;28892;55.640;37.532;2023-04-26T03:45:47;97286.16;;;12.88;68.42
43298;BME280;28892;55.640;37.532;2023-04-26T03:48:14;97285.50;;;12.97;67.56
43298;BME280;28892;55.640;37.532;2023-04-26T03:50:41;97266.25;;;12.90;67.40
43298;BME280;28892;55.640;37.532;2023-04-26T03:53:10;97274.69;;;12.87;67.76
43298;BME280;28892;55.640;37.532;2023-04-26T03:55:37;97279.13;;;12.98;67.13
43298;BME280;28892;55.640;37.532;2023-04-26T03:58:04;97268.59;;;13.09;66.98
43298;BME280;28892;55.640;37.532;2023-04-26T04:00:36;97278.00;;;13.17;67.23
43298;BME280;28892;55.640;37.532;2023-04-26T04:03:02;97281.69;;;13.10;67.18
43298;BME280;28892;55.640;37.532;2023-04-26T04:05:28;97274.63;;;12.99;67.72
43298;BME280;28892;55.640;37.532;2023-04-26T04:07:56;97277.72;;;13.13;67.79
43298;BME280;28892;55.640;37.532;2023-04-26T04:10:22;97270.41;;;13.03;67.34
43298;BME280;28892;55.640;37.532;2023-04-26T04:12:49;97266.34;;;13.18;66.86
43298;BME280;28892;55.640;37.532;2023-04-26T04:15:16;97266.38;;;13.23;66.03
43298;BME280;28892;55.640;37.532;2023-04-26T04:17:45;97255.97;;;13.21;66.51
43298;BME280;28892;55.640;37.532;2023-04-26T04:22:47;97262.63;;;13.19;67.22
43298;BME280;28892;55.640;37.532;2023-04-26T04:25:14;97268.88;;;13.07;67.78
43298;BME280;28892;55.640;37.532;2023-04-26T04:27:41;97258.50;;;13.11;67.33
43298;BME280;28892;55.640;37.532;2023-04-26T04:30:10;97263.84;;;13.11;67.58
43298;BME280;28892;55.640;37.532;2023-04-26T04:32:38;97269.25;;;13.16;67.32
43298;BME280;28892;55.640;37.532;2023-04-26T04:35:05;97273.44;;;13.34;67.49
43298;BME280;28892;55.640;37.532;2023-04-26T04:37:32;97255.75;;;13.23;67.68
43298;BME280;28892;55.640;37.532;2023-04-26T04:40:03;97249.19;;;13.31;67.70
43298;BME280;28892;55.640;37.532;2023-04-26T04:42:35;97260.44;;;13.16;67.38
43298;BME280;28892;55.640;37.532;2023-04-26T04:45:29;97270.03;;;13.39;67.44
43298;BME280;28892;55.640;37.532;2023-04-26T04:47:58;97254.88;;;13.17;67.41
43298;BME280;28892;55.640;37.532;2023-04-26T04:50:28;97262.75;;;13.29;67.47
43298;BME280;28892;55.640;37.532;2023-04-26T04:52:54;97261.50;;;13.14;67.91
43298;BME280;28892;55.640;37.532;2023-04-26T04:55:34;97256.56;;;13.23;67.59
43298;BME280;28892;55.640;37.532;2023-04-26T04:58:04;97258.84;;;13.37;67.42
43298;BME280;28892;55.640;37.532;2023-04-26T05:00:35;97264.22;;;13.20;68.10
43298;BME280;28892;55.640;37.532;2023-04-26T05:03:13;97259.03;;;13.30;67.10
43298;BME280;28892;55.640;37.532;2023-04-26T05:05:40;97258.53;;;13.33;66.37
43298;BME280;28892;55.640;37.532;2023-04-26T05:08:11;97258.16;;;13.24;67.70
43298;BME280;28892;55.640;37.532;2023-04-26T05:10:37;97258.41;;;13.23;67.26
43298;BME280;28892;55.640;37.532;2023-04-26T05:13:03;97247.94;;;13.38;67.22
43298;BME280;28892;55.640;37.532;2023-04-26T05:15:30;97254.81;;;13.34;67.21
43298;BME280;28892;55.640;37.532;2023-04-26T05:17:57;97256.97;;;13.37;66.47
43298;BME280;28892;55.640;37.532;2023-04-26T05:20:24;97253.16;;;13.50;66.56
43298;BME280;28892;55.640;37.532;2023-04-26T05:22:50;97264.13;;;13.54;66.70
43298;BME280;28892;55.640;37.532;2023-04-26T05:25:16;97256.44;;;13.58;66.83
43298;BME280;28892;55.640;37.532;2023-04-26T05:27:46;97250.84;;;13.59;66.21
43298;BME280;28892;55.640;37.532;2023-04-26T05:30:24;97258.84;;;13.37;66.87
43298;BME280;28892;55.640;37.532;2023-04-26T05:33:25;97263.84;;;13.33;67.55
43298;BME280;28892;55.640;37.532;2023-04-26T05:35:57;97269.69;;;13.30;68.03
43298;BME280;28892;55.640;37.532;2023-04-26T05:38:24;97260.88;;;13.07;68.37
43298;BME280;28892;55.640;37.532;2023-04-26T05:40:50;97265.63;;;13.05;68.94
43298;BME280;28892;55.640;37.532;2023-04-26T05:43:17;97254.00;;;13.11;68.63
43298;BME280;28892;55.640;37.532;2023-04-26T05:45:55;97266.84;;;13.37;68.40
43298;BME280;28892;55.640;37.532;2023-04-26T05:48:23;97262.44;;;13.25;68.56
43298;BME280;28892;55.640;37.532;2023-04-26T05:50:50;97265.03;;;13.20;68.43
43298;BME280;28892;55.640;37.532;2023-04-26T05:53:17;97245.34;;;13.21;68.41
43298;BME280;28892;55.640;37.532;2023-04-26T05:55:44;97258.41;;;13.01;68.81
43298;BME280;28892;55.640;37.532;2023-04-26T05:58:11;97259.34;;;13.11;68.76
43298;BME280;28892;55.640;37.532;2023-04-26T06:00:40;97254.69;;;13.24;67.91
43298;BME280;28892;55.640;37.532;2023-04-26T06:03:28;97252.34;;;13.27;67.61
43298;BME280;28892;55.640;37.532;2023-04-26T06:05:55;97267.38;;;13.39;68.00
43298;BME280;28892;55.640;37.532;2023-04-26T06:08:24;97266.44;;;13.45;68.26
43298;BME280;28892;55.640;37.532;2023-04-26T06:10:54;97260.09;;;13.29;68.01
43298;BME280;28892;55.640;37.532;2023-04-26T06:13:22;97273.75;;;13.38;67.81
43298;BME280;28892;55.640;37.532;2023-04-26T06:15:48;97273.59;;;13.22;68.17
43298;BME280;28892;55.640;37.532;2023-04-26T06:18:14;97264.34;;;13.30;67.74
43298;BME280;28892;55.640;37.532;2023-04-26T06:20:45;97268.19;;;13.39;68.21
43298;BME280;28892;55.640;37.532;2023-04-26T06:23:17;97264.84;;;13.27;67.88
43298;BME280;28892;55.640;37.532;2023-04-26T06:26:07;97284.97;;;13.40;68.08
43298;BME280;28892;55.640;37.532;2023-04-26T06:28:40;97269.38;;;13.71;66.60
43298;BME280;28892;55.640;37.532;2023-04-26T06:31:14;97276.50;;;13.65;66.93
43298;BME280;28892;55.640;37.532;2023-04-26T06:33:44;97268.22;;;13.89;65.67
43298;BME280;28892;55.640;37.532;2023-04-26T06:36:13;97283.44;;;14.21;64.97
43298;BME280;28892;55.640;37.532;2023-04-26T06:38:41;97263.84;;;14.05;65.19
43298;BME280;28892;55.640;37.532;2023-04-26T06:41:07;97288.28;;;13.97;65.87
43298;BME280;28892;55.640;37.532;2023-04-26T06:43:41;97271.38;;;14.14;65.24
43298;BME280;28892;55.640;37.532;2023-04-26T06:46:18;97278.25;;;14.37;64.10
43298;BME280;28892;55.640;37.532;2023-04-26T06:48:53;97278.06;;;14.49;63.82
43298;BME280;28892;55.640;37.532;2023-04-26T06:51:26;97276.06;;;14.66;63.49
43298;BME280;28892;55.640;37.532;2023-04-26T06:54:04;97281.50;;;14.82;62.33
43298;BME280;28892;55.640;37.532;2023-04-26T06:56:33;97279.38;;;14.84;62.72
43298;BME280;28892;55.640;37.532;2023-04-26T06:59:03;97274.31;;;14.50;63.30
43298;BME280;28892;55.640;37.532;2023-04-26T07:01:30;97283.78;;;14.30;63.04
43298;BME280;28892;55.640;37.532;2023-04-26T07:04:01;97275.88;;;14.13;64.34
43298;BME280;28892;55.640;37.532;2023-04-26T07:06:32;97289.03;;;14.20;64.56
43298;BME280;28892;55.640;37.532;2023-04-26T07:09:14;97282.97;;;14.30;64.73
43298;BME280;28892;55.640;37.532;2023-04-26T07:11:41;97291.97;;;14.89;62.67
43298;BME280;28892;55.640;37.532;2023-04-26T07:14:12;97285.72;;;14.40;64.32
43298;BME280;28892;55.640;37.532;2023-04-26T07:16:57;97290.03;;;14.46;64.57
43298;BME280;28892;55.640;37.532;2023-04-26T07:19:29;97294.75;;;14.34;64.50
43298;BME280;28892;55.640;37.532;2023-04-26T07:25:04;97304.19;;;14.47;63.95
43298;BME280;28892;55.640;37.532;2023-04-26T07:27:42;97291.91;;;14.46;63.88
43298;BME280;28892;55.640;37.532;2023-04-26T07:30:13;97300.00;;;14.56;63.06
43298;BME280;28892;55.640;37.532;2023-04-26T07:32:43;97306.78;;;14.69;63.84
43298;BME280;28892;55.640;37.532;2023-04-26T07:35:35;97303.75;;;14.60;63.41
43298;BME280;28892;55.640;37.532;2023-04-26T07:38:01;97308.25;;;14.55;64.26
43298;BME280;28892;55.640;37.532;2023-04-26T07:40:30;97310.44;;;14.30;64.44
43298;BME280;28892;55.640;37.532;2023-04-26T07:42:57;97310.44;;;14.30;64.32
43298;BME280;28892;55.640;37.532;2023-04-26T07:45:24;97314.47;;;14.33;65.25
43298;BME280;28892;55.640;37.532;2023-04-26T07:47:52;97306.97;;;14.30;64.50
43298;BME280;28892;55.640;37.532;2023-04-26T07:50:20;97317.59;;;14.24;64.74
43298;BME280;28892;55.640;37.532;2023-04-26T07:52:53;97308.47;;;14.48;63.48
43298;BME280;28892;55.640;37.532;2023-04-26T07:56:33;97312.88;;;14.64;63.13
43298;BME280;28892;55.640;37.532;2023-04-26T07:58:59;97323.66;;;14.75;63.57
43298;BME280;28892;55.640;37.532;2023-04-26T08:01:27;97324.34;;;14.65;63.99
43298;BME280;28892;55.640;37.532;2023-04-26T08:03:56;97314.72;;;14.64;63.70
43298;BME280;28892;55.640;37.532;2023-04-26T08:06:23;97319.00;;;14.65;64.16
43298;BME280;28892;55.640;37.532;2023-04-26T08:08:52;97328.38;;;14.67;63.38
43298;BME280;28892;55.640;37.532;2023-04-26T08:11:18;97332.31;;;14.60;64.03
43298;BME280;28892;55.640;37.532;2023-04-26T08:13:48;97315.38;;;14.76;63.98
43298;BME280;28892;55.640;37.532;2023-04-26T08:16:17;97329.06;;;14.85;63.00
43298;BME280;28892;55.640;37.532;2023-04-26T08:18:43;97343.84;;;14.71;63.59
43298;BME280;28892;55.640;37.532;2023-04-26T08:21:09;97339.66;;;14.75;63.45
43298;BME280;28892;55.640;37.532;2023-04-26T08:23:35;97331.69;;;14.80;63.35
43298;BME280;28892;55.640;37.532;2023-04-26T08:26:02;97341.41;;;14.64;64.71
43298;BME280;28892;55.640;37.532;2023-04-26T08:28:28;97344.06;;;14.64;64.33
43298;BME280;28892;55.640;37.532;2023-04-26T08:30:54;97338.34;;;14.50;64.75
43298;BME280;28892;55.640;37.532;2023-04-26T08:33:20;97338.19;;;14.62;64.10
43298;BME280;28892;55.640;37.532;2023-04-26T08:35:46;97342.00;;;14.71;64.11
43298;BME280;28892;55.640;37.532;2023-04-26T08:38:12;97339.94;;;14.78;62.96
43298;BME280;28892;55.640;37.532;2023-04-26T08:40:46;97334.03;;;15.14;62.80
43298;BME280;28892;55.640;37.532;2023-04-26T08:43:19;97338.34;;;15.20;62.43
43298;BME280;28892;55.640;37.532;2023-04-26T08:45:46;97346.44;;;15.36;62.37
43298;BME280;28892;55.640;37.532;2023-04-26T08:48:12;97343.88;;;15.57;62.23
43298;BME280;28892;55.640;37.532;2023-04-26T08:50:52;97346.75;;;15.45;62.62
43298;BME280;28892;55.640;37.532;2023-04-26T08:54:12;97346.00;;;15.55;62.42
43298;BME280;28892;55.640;37.532;2023-04-26T08:56:52;97342.63;;;15.27;63.14
43298;BME280;28892;55.640;37.532;2023-04-26T08:59:38;97348.16;;;15.09;63.42
43298;BME280;28892;55.640;37.532;2023-04-26T09:02:09;97362.84;;;15.07;63.72
43298;BME280;28892;55.640;37.532;2023-04-26T09:04:48;97345.22;;;15.11;63.31
43298;BME280;28892;55.640;37.532;2023-04-26T09:07:43;97365.13;;;15.31;62.75
43298;BME280;28892;55.640;37.532;2023-04-26T09:10:14;97381.56;;;15.12;63.58
43298;BME280;28892;55.640;37.532;2023-04-26T09:12:44;97355.88;;;15.06;64.10
43298;BME280;28892;55.640;37.532;2023-04-26T09:15:14;97371.97;;;15.16;64.09
43298;BME280;28892;55.640;37.532;2023-04-26T09:17:49;97362.09;;;15.22;62.76
43298;BME280;28892;55.640;37.532;2023-04-26T09:20:29;97367.50;;;15.27;63.00
43298;BME280;28892;55.640;37.532;2023-04-26T09:23:04;97380.63;;;14.91;64.35
43298;BME280;28892;55.640;37.532;2023-04-26T09:25:34;97392.59;;;14.88;64.87
43298;BME280;28892;55.640;37.532;2023-04-26T09:28:03;97382.63;;;14.78;64.97
43298;BME280;28892;55.640;37.532;2023-04-26T09:30:37;97381.22;;;14.71;65.52
43298;BME280;28892;55.640;37.532;2023-04-26T09:33:12;97380.91;;;14.34;66.37
43298;BME280;28892;55.640;37.532;2023-04-26T09:35:53;97393.06;;;14.52;65.53
43298;BME280;28892;55.640;37.532;2023-04-26T09:39:41;97388.06;;;14.61;65.90
43298;BME280;28892;55.640;37.532;2023-04-26T09:42:21;97393.03;;;14.47;64.77
43298;BME280;28892;55.640;37.532;2023-04-26T09:45:04;97397.59;;;14.52;65.52
43298;BME280;28892;55.640;37.532;2023-04-26T09:47:38;97393.59;;;14.55;65.38
43298;BME280;28892;55.640;37.532;2023-04-26T09:54:00;97395.84;;;14.68;64.73
43298;BME280;28892;55.640;37.532;2023-04-26T09:57:15;97405.13;;;14.60;65.30
43298;BME280;28892;55.640;37.532;2023-04-26T09:59:53;97390.91;;;14.49;65.47
43298;BME280;28892;55.640;37.532;2023-04-26T10:02:45;97394.88;;;14.47;65.87
43298;BME280;28892;55.640;37.532;2023-04-26T10:05:21;97410.00;;;14.69;65.87
43298;BME280;28892;55.640;37.532;2023-04-26T10:08:14;97410.75;;;14.59;65.56
43298;BME280;28892;55.640;37.532;2023-04-26T10:10:49;97409.06;;;14.52;64.96
43298;BME280;28892;55.640;37.532;2023-04-26T10:13:41;97412.56;;;14.53;66.01
43298;BME280;28892;55.640;37.532;2023-04-26T10:16:13;97424.31;;;14.57;65.82
43298;BME280;28892;55.640;37.532;2023-04-26T10:19:01;97430.66;;;14.78;65.24
43298;BME280;28892;55.640;37.532;2023-04-26T10:21:34;97419.44;;;14.76;64.87
43298;BME280;28892;55.640;37.532;2023-04-26T10:24:05;97417.19;;;14.68;64.84
43298;BME280;28892;55.640;37.532;2023-04-26T10:26:48;97428.44;;;14.98;63.93
43298;BME280;28892;55.640;37.532;2023-04-26T10:32:24;97426.06;;;14.46;65.19
43298;BME280;28892;55.640;37.532;2023-04-26T10:35:12;97415.16;;;14.48;65.91
43298;BME280;28892;55.640;37.532;2023-04-26T10:38:19;97434.50;;;14.88;65.14
43298;BME280;28892;55.640;37.532;2023-04-26T10:40:49;97424.66;;;14.93;64.16
43298;BME280;28892;55.640;37.532;2023-04-26T10:43:29;97420.25;;;15.09;63.90
43298;BME280;28892;55.640;37.532;2023-04-26T10:49:27;97425.78;;;15.35;63.67
43298;BME280;28892;55.640;37.532;2023-04-26T10:52:10;97436.38;;;15.63;62.86
43298;BME280;28892;55.640;37.532;2023-04-26T10:55:13;97426.66;;;14.76;66.05
43298;BME280;28892;55.640;37.532;2023-04-26T10:58:34;97436.16;;;14.94;64.60
43298;BME280;28892;55.640;37.532;2023-04-26T11:01:59;97447.22;;;15.08;64.22
43298;BME280;28892;55.640;37.532;2023-04-26T11:05:38;97451.84;;;14.85;64.88
43298;BME280;28892;55.640;37.532;2023-04-26T11:38:08;97467.28;;;16.97;60.83
43298;BME280;28892;55.640;37.532;2023-04-26T11:41:03;97476.16;;;16.97;60.19
43298;BME280;28892;55.640;37.532;2023-04-26T11:44:09;97475.03;;;16.67;59.31
43298;BME280;28892;55.640;37.532;2023-04-26T11:47:47;97468.59;;;16.68;60.79
43298;BME280;28892;55.640;37.532;2023-04-26T11:50:41;97466.75;;;16.89;58.22
43298;BME280;28892;55.640;37.532;2023-04-26T11:53:44;97464.38;;;17.24;56.91
43298;BME280;28892;55.640;37.532;2023-04-26T11:56:29;97472.34;;;16.83;58.21
43298;BME280;28892;55.640;37.532;2023-04-26T11:59:09;97480.09;;;16.69;58.60
43298;BME280;28892;55.640;37.532;2023-04-26T12:02:18;97483.84;;;16.62;58.92
43298;BME280;28892;55.640;37.532;2023-04-26T12:05:02;97481.66;;;16.44;57.44
43298;BME280;28892;55.640;37.532;2023-04-26T12:08:13;97488.16;;;16.79;58.62
43298;BME280;28892;55.640;37.532;2023-04-26T12:11:21;97488.75;;;17.23;56.81
43298;BME280;28892;55.640;37.532;2023-04-26T12:14:11;97483.94;;;17.25;57.24
43298;BME280;28892;55.640;37.532;2023-04-26T12:17:07;97488.13;;;17.88;55.90
43298;BME280;28892;55.640;37.532;2023-04-26T12:19:58;97498.56;;;18.10;56.44
43298;BME280;28892;55.640;37.532;2023-04-26T12:26:44;97504.94;;;18.25;55.19
43298;BME280;28892;55.640;37.532;2023-04-26T12:29:43;97508.56;;;17.63;55.42
43298;BME280;28892;55.640;37.532;2023-04-26T12:32:21;97496.53;;;17.29;55.32
43298;BME280;28892;55.640;37.532;2023-04-26T12:34:49;97504.28;;;17.10;54.87
43298;BME280;28892;55.640;37.532;2023-04-26T12:37:17;97500.81;;;17.04;54.45
43298;BME280;28892;55.640;37.532;2023-04-26T12:39:43;97507.50;;;17.23;54.45
43298;BME280;28892;55.640;37.532;2023-04-26T12:42:11;97512.88;;;17.33;54.45
43298;BME280;28892;55.640;37.532;2023-04-26T12:44:39;97500.81;;;17.30;53.78
43298;BME280;28892;55.640;37.532;2023-04-26T12:47:09;97505.34;;;17.61;52.40
43298;BME280;28892;55.640;37.532;2023-04-26T12:49:35;97504.53;;;17.66;52.15
43298;BME280;28892;55.640;37.532;2023-04-26T12:52:09;97495.66;;;17.91;51.86
43298;BME280;28892;55.640;37.532;2023-04-26T12:55:06;97513.56;;;18.17;51.96
43298;BME280;28892;55.640;37.532;2023-04-26T12:57:37;97504.66;;;18.26;50.58
43298;BME280;28892;55.640;37.532;2023-04-26T13:00:17;97508.34;;;18.41;50.14
43298;BME280;28892;55.640;37.532;2023-04-26T13:03:17;97513.97;;;18.50;49.06
43298;BME280;28892;55.640;37.532;2023-04-26T13:05:52;97514.75;;;18.50;48.91
43298;BME280;28892;55.640;37.532;2023-04-26T13:08:27;97522.81;;;18.50;49.35
43298;BME280;28892;55.640;37.532;2023-04-26T13:11:01;97501.09;;;18.47;48.13
43298;BME280;28892;55.640;37.532;2023-04-26T13:13:35;97507.41;;;18.71;48.28
43298;BME280;28892;55.640;37.532;2023-04-26T13:16:11;97524.56;;;18.76;49.00
43298;BME280;28892;55.640;37.532;2023-04-26T13:18:40;97512.28;;;18.69;48.43
43298;BME280;28892;55.640;37.532;2023-04-26T13:21:19;97527.25;;;18.81;46.68
43298;BME280;28892;55.640;37.532;2023-04-26T13:24:00;97516.00;;;18.68;46.36
43298;BME280;28892;55.640;37.532;2023-04-26T13:26:42;97513.81;;;18.81;47.33
43298;BME280;28892;55.640;37.532;2023-04-26T13:29:19;97529.63;;;18.82;46.91
43298;BME280;28892;55.640;37.532;2023-04-26T13:31:46;97526.69;;;18.79;47.54
43298;BME280;28892;55.640;37.532;2023-04-26T13:34:21;97527.97;;;18.92;47.16
43298;BME280;28892;55.640;37.532;2023-04-26T13:36:59;97532.06;;;18.84;46.84
43298;BME280;28892;55.640;37.532;2023-04-26T13:39:37;97521.47;;;19.03;46.33
43298;BME280;28892;55.640;37.532;2023-04-26T13:42:04;97539.19;;;19.04;46.86
43298;BME280;28892;55.640;37.532;2023-04-26T13:44:33;97532.50;;;19.02;46.00
43298;BME280;28892;55.640;37.532;2023-04-26T13:47:00;97544.00;;;19.12;46.02
43298;BME280;28892;55.640;37.532;2023-04-26T13:49:34;97533.19;;;19.18;45.99
43298;BME280;28892;55.640;37.532;2023-04-26T13:52:05;97536.69;;;19.18;45.82
43298;BME280;28892;55.640;37.532;2023-04-26T13:54:31;97534.84;;;19.13;45.76
43298;BME280;28892;55.640;37.532;2023-04-26T13:57:18;97545.66;;;19.03;46.80
43298;BME280;28892;55.640;37.532;2023-04-26T14:00:02;97531.28;;;18.78;46.62
43298;BME280;28892;55.640;37.532;2023-04-26T14:02:39;97538.50;;;18.83;46.78
43298;BME280;28892;55.640;37.532;2023-04-26T14:05:14;97547.59;;;18.92;46.17
43298;BME280;28892;55.640;37.532;2023-04-26T14:07:49;97546.69;;;19.07;45.42
43298;BME280;28892;55.640;37.532;2023-04-26T14:10:15;97541.50;;;18.76;45.50
43298;BME280;28892;55.640;37.532;2023-04-26T14:12:41;97548.78;;;18.65;45.63